createdAt,value
2019-02-25T00:00:15.881Z,46.87
2019-02-25T00:02:45.554Z,44.23
2019-02-25T00:05:14.543Z,43.30
2019-02-25T00:07:43.817Z,46.27
2019-02-25T00:10:12.669Z,47.23
2019-02-25T00:12:41.517Z,44.60
2019-02-25T00:15:11.429Z,51.73
2019-02-25T00:17:40.922Z,46.20
2019-02-25T00:20:13.138Z,53.93
2019-02-25T00:22:42.377Z,46.07
2019-02-25T00:25:12.948Z,48.83
2019-02-25T00:27:41.796Z,45.13
2019-02-25T00:30:15.542Z,47.93
2019-02-25T00:32:44.398Z,49.13
2019-02-25T00:35:13.280Z,48.37
2019-02-25T00:37:42.600Z,49.37
2019-02-25T00:40:13.998Z,49.60
2019-02-25T00:42:42.798Z,52.63
2019-02-25T00:45:16.522Z,50.53
2019-02-25T00:47:45.378Z,47.33
2019-02-25T00:50:18.761Z,48.53
2019-02-25T00:52:47.678Z,47.20
2019-02-25T00:55:16.633Z,53.97
2019-02-25T00:57:45.478Z,47.00
2019-02-25T01:00:17.243Z,48.83
2019-02-25T01:02:46.099Z,47.30
2019-02-25T01:05:16.763Z,47.00
2019-02-25T01:07:45.652Z,44.60
2019-02-25T01:10:16.128Z,48.90
2019-02-25T01:12:46.369Z,53.17
2019-02-25T01:15:16.533Z,51.23
2019-02-25T01:17:45.393Z,52.43
2019-02-25T01:20:18.804Z,47.43
2019-02-25T01:22:47.711Z,48.60
2019-02-25T01:25:18.131Z,49.00
2019-02-25T01:27:46.986Z,51.33
2019-02-25T01:30:20.493Z,48.10
2019-02-25T01:32:49.358Z,48.77
2019-02-25T01:35:18.675Z,49.20
2019-02-25T01:37:47.687Z,47.37
2019-02-25T01:40:16.668Z,48.33
2019-02-25T01:42:45.523Z,47.60
2019-02-25T01:45:21.633Z,50.53
2019-02-25T01:47:50.546Z,50.03
2019-02-25T01:50:19.636Z,52.80
2019-02-25T01:52:48.578Z,52.43
2019-02-25T01:55:17.413Z,51.67
2019-02-25T01:57:46.247Z,59.73
2019-02-25T02:00:17.682Z,55.30
2019-02-25T02:02:46.704Z,57.67
2019-02-25T02:05:15.958Z,52.03
2019-02-25T02:07:44.935Z,54.13
2019-02-25T02:10:15.209Z,58.90
2019-02-25T02:12:44.464Z,50.20
2019-02-25T02:15:20.910Z,53.23
2019-02-25T02:17:49.760Z,52.27
2019-02-25T02:20:19.203Z,52.63
2019-02-25T02:22:48.102Z,52.20
2019-02-25T02:25:16.950Z,58.87
2019-02-25T02:27:45.801Z,53.17
2019-02-25T02:30:17.945Z,59.70
2019-02-25T02:32:46.894Z,57.20
2019-02-25T02:35:15.754Z,54.50
2019-02-25T02:37:45.073Z,58.30
2019-02-25T02:40:14.405Z,58.30
2019-02-25T02:42:46.430Z,56.80
2019-02-25T02:45:22.038Z,54.87
2019-02-25T02:47:53.891Z,61.00
2019-02-25T02:50:24.042Z,59.37
2019-02-25T02:52:53.025Z,56.60
2019-02-25T02:55:21.911Z,61.77
2019-02-25T02:57:50.746Z,57.63
2019-02-25T03:00:20.829Z,55.77
2019-02-25T03:02:49.678Z,56.97
2019-02-25T03:05:18.841Z,58.03
2019-02-25T03:07:47.855Z,53.73
2019-02-25T03:10:19.094Z,52.47
2019-02-25T03:12:48.051Z,56.23
2019-02-25T03:15:22.077Z,58.60
2019-02-25T03:17:51.151Z,56.13
2019-02-25T03:20:20.017Z,52.40
2019-02-25T03:22:49.498Z,58.60
2019-02-25T03:25:18.949Z,60.50
2019-02-25T03:27:47.793Z,66.17
2019-02-25T03:30:21.251Z,59.47
2019-02-25T03:32:50.130Z,61.00
2019-02-25T03:35:19.046Z,63.17
2019-02-25T03:37:48.210Z,61.07
2019-02-25T03:40:22.200Z,59.50
2019-02-25T03:42:51.418Z,60.57
2019-02-25T03:45:21.011Z,62.90
2019-02-25T03:47:49.862Z,70.57
2019-02-25T03:50:18.813Z,63.47
2019-02-25T03:52:47.999Z,62.83
2019-02-25T03:55:20.870Z,64.40
2019-02-25T03:57:49.889Z,60.23
2019-02-25T04:00:21.793Z,61.93
2019-02-25T04:02:50.761Z,61.63
2019-02-25T04:05:19.609Z,65.03
2019-02-25T04:07:48.899Z,58.73
2019-02-25T04:10:18.019Z,61.20
2019-02-25T04:12:47.706Z,62.00
2019-02-25T04:15:24.880Z,60.83
2019-02-25T04:17:53.738Z,65.20
2019-02-25T04:20:22.590Z,59.17
2019-02-25T04:22:51.741Z,58.33
2019-02-25T04:25:20.785Z,55.77
2019-02-25T04:27:49.760Z,61.33
2019-02-25T04:30:18.789Z,57.50
2019-02-25T04:32:47.657Z,60.27
2019-02-25T04:35:16.523Z,65.17
2019-02-25T04:37:45.736Z,63.40
2019-02-25T04:40:15.447Z,67.10
2019-02-25T04:42:44.380Z,62.93
2019-02-25T04:45:16.189Z,68.13
2019-02-25T04:47:45.059Z,65.60
2019-02-25T04:50:14.665Z,63.87
2019-02-25T04:52:44.076Z,57.73
2019-02-25T04:55:14.646Z,65.00
2019-02-25T04:57:43.489Z,63.73
2019-02-25T05:00:24.467Z,56.90
2019-02-25T05:02:53.335Z,62.50
2019-02-25T05:05:22.314Z,57.17
2019-02-25T05:07:51.483Z,59.13
2019-02-25T05:10:20.342Z,65.43
2019-02-25T05:12:50.823Z,59.70
2019-02-25T05:15:22.164Z,60.33
2019-02-25T05:17:51.055Z,63.97
2019-02-25T05:20:20.365Z,63.33
2019-02-25T05:22:49.302Z,67.13
2019-02-25T05:25:18.190Z,67.00
2019-02-25T05:27:47.048Z,71.57
2019-02-25T05:30:17.112Z,78.00
2019-02-25T05:32:45.962Z,69.50
2019-02-25T05:35:14.823Z,72.57
2019-02-25T05:37:43.726Z,75.23
2019-02-25T05:40:15.039Z,75.63
2019-02-25T05:42:44.016Z,72.90
2019-02-25T05:45:14.210Z,68.20
2019-02-25T05:47:43.071Z,62.80
2019-02-25T05:50:19.742Z,66.50
2019-02-25T05:52:49.139Z,66.80
2019-02-25T05:55:18.092Z,67.00
2019-02-25T05:57:47.456Z,79.97
2019-02-25T06:00:22.872Z,77.40
2019-02-25T06:02:51.806Z,70.67
2019-02-25T06:05:20.659Z,74.50
2019-02-25T06:07:49.518Z,71.20
2019-02-25T06:10:18.843Z,71.47
2019-02-25T06:12:47.698Z,69.63
2019-02-25T06:15:21.025Z,64.90
2019-02-25T06:17:49.982Z,62.97
2019-02-25T06:20:19.070Z,64.40
2019-02-25T06:22:48.080Z,66.13
2019-02-25T06:25:17.974Z,63.33
2019-02-25T06:27:46.899Z,65.27
2019-02-25T06:30:27.674Z,68.33
2019-02-25T06:32:56.993Z,65.13
2019-02-25T06:35:25.966Z,73.17
2019-02-25T06:37:55.318Z,64.77
2019-02-25T06:40:24.244Z,67.63
2019-02-25T06:42:53.161Z,68.90
2019-02-25T06:45:31.199Z,65.53
2019-02-25T06:48:00.225Z,61.87
2019-02-25T06:50:29.124Z,70.63
2019-02-25T06:52:58.551Z,73.90
2019-02-25T06:55:27.410Z,77.80
2019-02-25T06:57:56.261Z,68.03
2019-02-25T07:00:25.772Z,84.57
2019-02-25T07:02:54.625Z,64.73
2019-02-25T07:05:27.889Z,65.23
2019-02-25T07:07:58.812Z,62.50
2019-02-25T07:10:32.261Z,64.17
2019-02-25T07:13:19.311Z,64.73
2019-02-25T07:15:49.827Z,68.20
2019-02-25T07:18:20.248Z,64.93
2019-02-25T07:21:00.542Z,68.40
2019-02-25T07:23:30.989Z,60.97
2019-02-25T07:26:04.238Z,63.37
2019-02-25T07:28:37.754Z,62.47
2019-02-25T07:31:24.561Z,62.33
2019-02-25T07:34:10.114Z,65.57
2019-02-25T07:36:55.376Z,59.53
2019-02-25T07:39:25.798Z,60.53
2019-02-25T07:41:58.991Z,61.03
2019-02-25T07:44:29.719Z,65.43
2019-02-25T07:47:00.155Z,66.77
2019-02-25T07:49:33.582Z,67.27
2019-02-25T07:52:07.058Z,66.77
2019-02-25T07:54:54.095Z,60.80
2019-02-25T07:57:33.900Z,64.80
2019-02-25T08:00:07.191Z,62.90
2019-02-25T08:02:37.642Z,55.67
2019-02-25T08:05:26.562Z,59.10
2019-02-25T08:08:03.010Z,52.37
2019-02-25T08:10:33.478Z,54.43
2019-02-25T08:13:06.964Z,51.30
2019-02-25T08:15:37.694Z,51.33
2019-02-25T08:18:14.441Z,52.20
2019-02-25T08:20:44.946Z,45.63
2019-02-25T08:23:32.683Z,49.57
2019-02-25T08:26:06.390Z,47.07
2019-02-25T08:28:36.811Z,45.40
2019-02-25T08:31:13.543Z,43.53
2019-02-25T08:34:03.571Z,41.00
2019-02-25T08:37:04.320Z,38.33
2019-02-25T08:39:34.834Z,38.90
2019-02-25T08:42:05.344Z,46.27
2019-02-25T08:44:39.414Z,47.97
2019-02-25T08:47:12.834Z,49.67
2019-02-25T08:49:46.293Z,44.53
2019-02-25T08:52:15.143Z,38.80
2019-02-25T08:54:44.003Z,36.43
2019-02-25T08:57:13.577Z,38.93
2019-02-25T08:59:42.426Z,37.90
2019-02-25T09:02:11.301Z,35.80
2019-02-25T09:04:40.683Z,35.77
2019-02-25T09:07:09.558Z,37.03
2019-02-25T09:09:38.417Z,32.67
2019-02-25T09:12:07.842Z,36.13
2019-02-25T09:14:36.686Z,31.60
2019-02-25T09:17:05.529Z,31.60
2019-02-25T09:19:34.820Z,32.00
2019-02-25T09:22:03.672Z,32.83
2019-02-25T09:24:33.367Z,32.40
2019-02-25T09:27:02.544Z,34.47
2019-02-25T09:29:31.442Z,34.90
2019-02-25T09:32:00.266Z,31.77
2019-02-25T09:34:29.582Z,31.47
2019-02-25T09:36:58.642Z,32.70
2019-02-25T09:39:27.556Z,32.73
2019-02-25T09:41:56.725Z,31.47
2019-02-25T09:44:25.790Z,30.57
2019-02-25T09:46:54.638Z,30.03
2019-02-25T09:49:23.938Z,31.00
2019-02-25T09:51:53.210Z,32.43
2019-02-25T09:54:22.058Z,31.87
2019-02-25T09:56:51.210Z,32.10
2019-02-25T09:59:20.066Z,30.43
2019-02-25T10:01:48.918Z,33.23
2019-02-25T10:04:18.340Z,31.53
2019-02-25T10:06:47.190Z,34.20
2019-02-25T10:09:16.041Z,32.07
2019-02-25T10:11:45.590Z,30.67
2019-02-25T10:14:14.449Z,31.70
2019-02-25T10:16:43.294Z,30.73
2019-02-25T10:19:12.709Z,33.00
2019-02-25T10:21:41.544Z,33.47
2019-02-25T10:24:10.528Z,34.60
2019-02-25T10:26:40.583Z,35.10
2019-02-25T10:29:09.610Z,33.97
2019-02-25T10:31:39.721Z,32.00
2019-02-25T10:34:09.291Z,37.37
2019-02-25T10:36:38.188Z,33.07
2019-02-25T10:39:11.281Z,31.93
2019-02-25T10:41:41.078Z,30.50
2019-02-25T10:44:09.943Z,33.07
2019-02-25T10:46:40.686Z,31.47
2019-02-25T10:49:11.680Z,28.87
2019-02-25T10:51:41.212Z,29.87
2019-02-25T10:54:11.061Z,33.23
2019-02-25T10:56:43.161Z,33.73
2019-02-25T10:59:12.054Z,29.93
2019-02-25T11:01:41.737Z,32.07
2019-02-25T11:04:11.927Z,33.47
2019-02-25T11:06:40.992Z,30.00
2019-02-25T11:09:21.972Z,32.07
2019-02-25T11:11:52.619Z,28.20
2019-02-25T11:14:21.739Z,27.63
2019-02-25T11:16:52.195Z,27.07
2019-02-25T11:19:22.376Z,31.53
2019-02-25T11:21:51.894Z,29.73
2019-02-25T11:24:22.785Z,26.87
2019-02-25T11:26:51.671Z,30.70
2019-02-25T11:29:21.751Z,30.13
2019-02-25T11:31:51.602Z,30.83
2019-02-25T11:34:21.418Z,29.63
2019-02-25T11:36:51.002Z,29.00
2019-02-25T11:39:21.499Z,29.60
2019-02-25T11:41:50.374Z,28.67
2019-02-25T11:44:21.095Z,30.20
2019-02-25T11:46:50.061Z,26.90
2019-02-25T11:49:19.107Z,33.10
2019-02-25T11:51:48.062Z,28.47
2019-02-25T11:54:17.221Z,32.37
2019-02-25T11:56:46.085Z,27.83
2019-02-25T11:59:14.949Z,28.97
2019-02-25T12:01:44.134Z,27.90
2019-02-25T12:04:12.978Z,27.80
2019-02-25T12:06:42.039Z,28.13
2019-02-25T12:09:11.351Z,28.20
2019-02-25T12:11:40.207Z,23.60
2019-02-25T12:14:09.264Z,23.33
2019-02-25T12:16:38.450Z,24.33
2019-02-25T12:19:07.287Z,23.13
2019-02-25T12:21:36.210Z,21.83
2019-02-25T12:24:05.378Z,22.63
2019-02-25T12:26:34.589Z,23.70
2019-02-25T12:29:10.664Z,22.77
2019-02-25T12:31:35.191Z,24.83
2019-02-25T12:34:04.047Z,23.93
2019-02-25T12:36:32.900Z,23.90
2019-02-25T12:39:02.529Z,22.77
2019-02-25T12:41:31.395Z,19.43
2019-02-25T12:44:00.242Z,23.07
2019-02-25T12:46:29.419Z,21.33
2019-02-25T12:48:58.270Z,19.93
2019-02-25T12:51:27.353Z,18.87
2019-02-25T12:53:56.594Z,16.47
2019-02-25T12:56:25.452Z,17.00
2019-02-25T12:58:54.514Z,16.77
2019-02-25T13:01:23.686Z,17.80
2019-02-25T13:03:52.614Z,17.73
2019-02-25T13:06:21.673Z,17.23
2019-02-25T13:08:50.868Z,17.47
2019-02-25T13:11:19.745Z,16.37
2019-02-25T13:13:48.603Z,15.77
2019-02-25T13:16:17.761Z,17.40
2019-02-25T13:18:46.620Z,15.73
2019-02-25T13:21:15.489Z,17.37
2019-02-25T13:23:44.663Z,17.27
2019-02-25T13:26:13.805Z,19.07
2019-02-25T13:28:42.660Z,21.83
2019-02-25T13:31:11.839Z,17.07
2019-02-25T13:33:42.110Z,15.83
2019-02-25T13:36:11.980Z,17.77
2019-02-25T13:38:41.234Z,19.37
2019-02-25T13:41:10.288Z,17.50
2019-02-25T13:43:39.151Z,18.50
2019-02-25T13:46:08.320Z,19.10
2019-02-25T13:48:37.174Z,18.77
2019-02-25T13:51:09.451Z,18.57
2019-02-25T13:53:38.678Z,21.27
2019-02-25T13:56:07.823Z,20.10
2019-02-25T13:58:36.678Z,26.37
2019-02-25T14:01:05.949Z,33.70
2019-02-25T14:03:35.031Z,21.57
2019-02-25T14:06:03.895Z,22.77
2019-02-25T14:08:34.875Z,22.90
2019-02-25T14:11:04.045Z,19.90
2019-02-25T14:13:33.912Z,22.30
2019-02-25T14:16:02.809Z,23.10
2019-02-25T14:18:31.900Z,19.37
2019-02-25T14:21:00.996Z,19.40
2019-02-25T14:23:30.154Z,22.43
2019-02-25T14:25:59.242Z,22.97
2019-02-25T14:28:30.142Z,18.70
2019-02-25T14:30:58.980Z,17.03
2019-02-25T14:33:27.843Z,17.50
2019-02-25T14:35:57.394Z,16.63
2019-02-25T14:38:27.629Z,18.47
2019-02-25T14:40:57.513Z,18.30
2019-02-25T14:43:27.484Z,18.03
2019-02-25T14:45:58.694Z,17.93
2019-02-25T14:48:27.991Z,18.43
2019-02-25T14:50:57.921Z,20.70
2019-02-25T14:53:29.458Z,19.37
2019-02-25T14:55:58.417Z,17.60
2019-02-25T14:58:31.385Z,17.50
2019-02-25T15:00:59.241Z,16.93
2019-02-25T15:03:29.148Z,18.90
2019-02-25T15:05:59.224Z,19.07
2019-02-25T15:08:30.478Z,20.90
2019-02-25T15:11:01.989Z,19.80
2019-02-25T15:13:30.321Z,20.93
2019-02-25T15:16:00.577Z,21.33
2019-02-25T15:18:31.172Z,20.67
2019-02-25T15:21:00.626Z,22.43
2019-02-25T15:23:31.593Z,21.67
2019-02-25T15:26:05.222Z,19.70
2019-02-25T15:28:31.022Z,22.30
2019-02-25T15:31:02.142Z,21.77
2019-02-25T15:33:31.538Z,23.47
2019-02-25T15:36:01.413Z,26.07
2019-02-25T15:38:32.521Z,24.00
2019-02-25T15:41:02.252Z,26.47
2019-02-25T15:43:32.121Z,27.27
2019-02-25T15:46:01.435Z,23.77
2019-02-25T15:48:30.969Z,25.70
2019-02-25T15:51:01.330Z,23.87
2019-02-25T15:53:30.703Z,24.07
2019-02-25T15:56:01.422Z,22.87
2019-02-25T15:58:30.905Z,22.50
2019-02-25T16:01:00.551Z,24.80
2019-02-25T16:03:29.715Z,25.13
2019-02-25T16:06:01.691Z,26.17
2019-02-25T16:08:31.128Z,30.60
2019-02-25T16:11:00.249Z,24.00
2019-02-25T16:13:29.774Z,25.40
2019-02-25T16:15:58.951Z,26.37
2019-02-25T16:18:28.243Z,27.03
2019-02-25T16:20:59.520Z,25.17
2019-02-25T16:23:31.804Z,27.23
2019-02-25T16:25:58.964Z,25.90
2019-02-25T16:28:28.986Z,27.03
2019-02-25T16:30:58.697Z,25.50
2019-02-25T16:33:28.301Z,26.60
2019-02-25T16:35:59.144Z,27.80
2019-02-25T16:38:29.666Z,28.57
2019-02-25T16:41:00.984Z,27.37
2019-02-25T16:43:30.931Z,30.40
2019-02-25T16:46:02.036Z,27.30
2019-02-25T16:48:32.571Z,32.70
2019-02-25T16:51:02.706Z,30.53
2019-02-25T16:53:36.951Z,29.43
2019-02-25T16:56:05.097Z,26.33
2019-02-25T16:58:34.174Z,33.60
2019-02-25T17:01:05.483Z,28.47
2019-02-25T17:03:37.021Z,34.53
2019-02-25T17:06:06.871Z,31.70
2019-02-25T17:08:36.617Z,29.77
2019-02-25T17:11:05.736Z,31.43
2019-02-25T17:13:37.192Z,29.57
2019-02-25T17:16:17.206Z,30.97
2019-02-25T17:18:37.875Z,30.60
2019-02-25T17:21:07.682Z,31.27
2019-02-25T17:23:38.801Z,31.80
2019-02-25T17:26:09.955Z,35.43
2019-02-25T17:28:38.786Z,39.20
2019-02-25T17:31:09.121Z,39.50
2019-02-25T17:33:38.722Z,35.00
2019-02-25T17:36:08.463Z,36.77
2019-02-25T17:38:38.701Z,37.47
2019-02-25T17:41:08.387Z,36.30
2019-02-25T17:43:40.859Z,40.33
2019-02-25T17:46:11.984Z,37.27
2019-02-25T17:48:41.159Z,39.93
2019-02-25T17:51:10.054Z,42.07
2019-02-25T17:53:39.265Z,38.67
2019-02-25T17:56:08.539Z,39.97
2019-02-25T17:58:38.230Z,36.63
2019-02-25T18:01:09.074Z,42.93
2019-02-25T18:03:39.635Z,41.27
2019-02-25T18:06:09.213Z,36.93
2019-02-25T18:08:39.418Z,38.90
2019-02-25T18:11:08.636Z,45.47
2019-02-25T18:13:37.470Z,39.60
2019-02-25T18:16:08.543Z,36.03
2019-02-25T18:18:39.166Z,38.07
2019-02-25T18:21:08.268Z,37.47
2019-02-25T18:23:38.463Z,36.93
2019-02-25T18:26:07.540Z,38.97
2019-02-25T18:28:39.671Z,38.77
2019-02-25T18:31:11.170Z,39.87
2019-02-25T18:33:39.389Z,39.07
2019-02-25T18:36:08.945Z,38.17
2019-02-25T18:38:39.297Z,40.70
2019-02-25T18:41:09.262Z,36.43
2019-02-25T18:43:38.515Z,39.60
2019-02-25T18:46:09.296Z,41.03
2019-02-25T18:48:38.400Z,38.03
2019-02-25T18:51:07.427Z,40.37
2019-02-25T18:53:37.247Z,38.10
2019-02-25T18:56:06.499Z,40.73
2019-02-25T18:58:37.353Z,42.03
2019-02-25T19:01:07.382Z,39.57
2019-02-25T19:03:39.752Z,42.30
2019-02-25T19:06:09.465Z,41.17
2019-02-25T19:08:38.863Z,40.17
2019-02-25T19:11:07.898Z,42.20
2019-02-25T19:13:37.068Z,41.47
2019-02-25T19:16:06.373Z,44.60
2019-02-25T19:18:36.346Z,45.60
2019-02-25T19:21:07.134Z,48.53
2019-02-25T19:23:39.395Z,45.30
2019-02-25T19:26:10.461Z,44.93
2019-02-25T19:28:38.792Z,43.50
2019-02-25T19:31:08.776Z,45.00
2019-02-25T19:33:37.966Z,47.70
2019-02-25T19:36:07.078Z,46.43
2019-02-25T19:38:41.305Z,47.00
2019-02-25T19:41:11.073Z,48.47
2019-02-25T19:43:38.950Z,45.73
2019-02-25T19:46:11.037Z,53.30
2019-02-25T19:48:42.710Z,46.83
2019-02-25T19:51:12.338Z,47.50
2019-02-25T19:53:42.961Z,52.17
2019-02-25T19:56:12.810Z,51.13
2019-02-25T19:58:42.438Z,54.50
2019-02-25T20:01:11.950Z,55.63
2019-02-25T20:03:42.798Z,57.60
2019-02-25T20:06:15.902Z,58.73
2019-02-25T20:08:44.043Z,50.57
2019-02-25T20:11:13.161Z,47.73
2019-02-25T20:13:43.102Z,51.63
2019-02-25T20:16:15.842Z,49.80
2019-02-25T20:18:44.047Z,52.70
2019-02-25T20:21:13.595Z,53.73
2019-02-25T20:23:42.917Z,49.23
2019-02-25T20:26:13.476Z,51.70
2019-02-25T20:28:43.500Z,53.13
2019-02-25T20:31:14.490Z,57.60
2019-02-25T20:33:44.347Z,55.83
2019-02-25T20:36:17.082Z,60.70
2019-02-25T20:38:44.546Z,62.23
2019-02-25T20:41:16.063Z,65.27
2019-02-25T20:43:44.492Z,61.97
2019-02-25T20:46:14.984Z,57.87
2019-02-25T20:48:46.486Z,54.40
2019-02-25T20:51:15.549Z,66.20
2019-02-25T20:53:46.122Z,57.07
2019-02-25T20:56:17.739Z,57.50
2019-02-25T20:58:46.783Z,60.80
2019-02-25T21:01:16.447Z,65.50
2019-02-25T21:03:48.622Z,64.00
2019-02-25T21:06:19.546Z,62.50
2019-02-25T21:08:50.107Z,61.13
2019-02-25T21:11:19.028Z,66.73
2019-02-25T21:13:47.980Z,65.23
2019-02-25T21:16:17.362Z,65.57
2019-02-25T21:18:47.121Z,65.90
2019-02-25T21:21:17.051Z,69.00
2019-02-25T21:23:46.311Z,67.47
2019-02-25T21:26:15.163Z,67.97
2019-02-25T21:28:44.062Z,67.53
2019-02-25T21:31:14.569Z,64.77
2019-02-25T21:33:47.407Z,67.33
2019-02-25T21:36:14.683Z,66.63
2019-02-25T21:38:45.321Z,67.17
2019-02-25T21:41:15.463Z,69.17
2019-02-25T21:43:45.635Z,62.97
2019-02-25T21:46:18.035Z,62.80
2019-02-25T21:48:48.581Z,61.73
2019-02-25T21:51:17.030Z,60.07
2019-02-25T21:53:47.009Z,60.40
2019-02-25T21:56:16.836Z,63.97
2019-02-25T21:58:47.095Z,64.27
2019-02-25T22:01:16.970Z,60.43
2019-02-25T22:03:48.212Z,74.30
2019-02-25T22:06:19.968Z,93.17
2019-02-25T22:08:50.154Z,91.10
2019-02-25T22:11:19.815Z,78.20
2019-02-25T22:13:48.824Z,72.07
2019-02-25T22:16:17.978Z,79.40
2019-02-25T22:18:48.301Z,74.40
2019-02-25T22:21:19.513Z,84.37
2019-02-25T22:23:49.442Z,79.07
2019-02-25T22:26:19.067Z,83.60
2019-02-25T22:28:47.935Z,79.13
2019-02-25T22:31:18.128Z,81.20
2019-02-25T22:33:47.185Z,82.77
2019-02-25T22:36:16.303Z,87.77
2019-02-25T22:38:45.315Z,91.90
2019-02-25T22:41:16.178Z,86.77
2019-02-25T22:43:46.503Z,83.13
2019-02-25T22:46:15.873Z,81.57
2019-02-25T22:48:45.562Z,80.63
2019-02-25T22:51:15.277Z,86.70
2019-02-25T22:53:44.187Z,89.70
2019-02-25T22:56:15.893Z,85.63
2019-02-25T22:58:45.161Z,85.60
2019-02-25T23:01:17.557Z,88.80
2019-02-25T23:03:46.978Z,85.10
2019-02-25T23:06:16.274Z,82.03
2019-02-25T23:08:48.353Z,87.13
2019-02-25T23:11:18.993Z,91.20
2019-02-25T23:13:47.850Z,88.30
2019-02-25T23:16:20.437Z,88.47
2019-02-25T23:18:48.814Z,88.43
2019-02-25T23:21:23.958Z,92.93
2019-02-25T23:23:51.339Z,95.73
2019-02-25T23:26:19.941Z,103.53
2019-02-25T23:28:51.122Z,101.63
2019-02-25T23:31:20.348Z,102.87
2019-02-25T23:33:51.113Z,105.17
2019-02-25T23:36:21.673Z,105.80
2019-02-25T23:38:50.662Z,98.63
2019-02-25T23:41:20.774Z,100.73
2019-02-25T23:43:49.638Z,94.33
2019-02-25T23:46:22.909Z,94.40
2019-02-25T23:48:51.110Z,92.40
2019-02-25T23:51:21.679Z,99.93
2019-02-25T23:53:51.284Z,102.90
2019-02-25T23:56:22.808Z,108.17
2019-02-25T23:58:53.978Z,106.87
